createdAt,value
2022-11-20T00:01:22.204Z,39.50
2022-11-20T00:03:49.515Z,39.30
2022-11-20T00:06:18.268Z,39.10
2022-11-20T00:08:45.431Z,38.70
2022-11-20T00:11:18.371Z,39.50
2022-11-20T00:13:46.518Z,38.50
2022-11-20T00:16:16.046Z,38.70
2022-11-20T00:18:43.439Z,38.70
2022-11-20T00:21:27.458Z,38.60
2022-11-20T00:23:55.992Z,38.40
2022-11-20T00:26:24.972Z,38.40
2022-11-20T00:28:57.502Z,38.40
2022-11-20T00:31:24.742Z,38.50
2022-11-20T00:33:52.064Z,38.80
2022-11-20T00:36:24.517Z,38.70
2022-11-20T00:38:55.993Z,38.40
2022-11-20T00:41:23.349Z,37.50
2022-11-20T00:43:50.401Z,37.90
2022-11-20T00:46:19.983Z,38.80
2022-11-20T00:48:47.017Z,38.60
2022-11-20T00:51:16.233Z,38.80
2022-11-20T00:53:43.450Z,38.60
2022-11-20T00:56:15.831Z,38.50
2022-11-20T00:58:44.273Z,38.00
2022-11-20T01:01:17.275Z,38.20
2022-11-20T01:03:47.134Z,38.30
2022-11-20T01:06:27.402Z,38.50
2022-11-20T01:08:56.801Z,38.30
2022-11-20T01:11:32.293Z,38.50
2022-11-20T01:14:00.317Z,37.80
2022-11-20T01:16:38.207Z,38.10
2022-11-20T01:19:07.187Z,37.60
2022-11-20T01:21:36.455Z,37.70
2022-11-20T01:24:04.802Z,37.90
2022-11-20T01:26:34.299Z,37.50
2022-11-20T01:29:02.321Z,37.90
2022-11-20T01:31:31.669Z,38.00
2022-11-20T01:34:01.068Z,38.40
2022-11-20T01:36:30.426Z,37.90
2022-11-20T01:38:59.816Z,37.80
2022-11-20T01:41:46.878Z,37.80
2022-11-20T01:44:16.066Z,38.00
2022-11-20T01:47:10.413Z,37.90
2022-11-20T01:49:46.231Z,38.20
2022-11-20T01:52:28.728Z,38.00
2022-11-20T01:55:01.704Z,37.90
2022-11-20T01:57:31.223Z,37.70
2022-11-20T02:00:10.736Z,37.90
2022-11-20T02:02:38.594Z,37.70
2022-11-20T02:05:15.073Z,37.80
2022-11-20T02:07:42.788Z,37.20
2022-11-20T02:10:10.537Z,48.10
2022-11-20T02:12:55.952Z,40.20
2022-11-20T02:15:26.308Z,37.80
2022-11-20T02:17:56.798Z,37.80
2022-11-20T02:20:23.515Z,37.50
2022-11-20T02:23:13.624Z,37.20
2022-11-20T02:25:42.043Z,36.60
2022-11-20T02:28:08.933Z,37.20
2022-11-20T02:30:35.686Z,37.80
2022-11-20T02:33:02.337Z,38.00
2022-11-20T02:35:29.017Z,38.00
2022-11-20T02:37:58.640Z,38.50
2022-11-20T02:40:25.770Z,37.80
2022-11-20T02:42:56.662Z,37.70
2022-11-20T02:45:24.292Z,37.50
2022-11-20T02:47:51.752Z,37.60
2022-11-20T02:50:18.741Z,40.00
2022-11-20T02:52:45.456Z,49.70
2022-11-20T02:55:12.634Z,45.70
2022-11-20T02:57:39.353Z,37.70
2022-11-20T03:00:07.785Z,37.90
2022-11-20T03:02:34.676Z,37.80
2022-11-20T03:05:01.547Z,37.10
2022-11-20T03:07:28.327Z,37.10
2022-11-20T03:09:55.103Z,37.40
2022-11-20T03:12:21.851Z,37.40
2022-11-20T03:14:52.871Z,36.70
2022-11-20T03:17:20.139Z,36.50
2022-11-20T03:19:46.854Z,36.80
2022-11-20T03:22:13.556Z,37.10
2022-11-20T03:24:40.241Z,37.20
2022-11-20T03:27:06.928Z,37.00
2022-11-20T03:29:33.683Z,37.00
2022-11-20T03:32:00.354Z,36.40
2022-11-20T03:34:27.011Z,36.50
2022-11-20T03:36:53.750Z,37.00
2022-11-20T03:39:20.664Z,37.30
2022-11-20T03:41:47.550Z,37.30
2022-11-20T03:44:14.309Z,37.10
2022-11-20T03:46:41.007Z,37.20
2022-11-20T03:49:07.708Z,36.40
2022-11-20T03:51:36.915Z,36.40
2022-11-20T03:54:08.394Z,36.90
2022-11-20T03:56:39.301Z,37.10
2022-11-20T03:59:06.214Z,37.50
2022-11-20T04:01:35.749Z,37.40
2022-11-20T04:04:02.765Z,37.30
2022-11-20T04:06:36.619Z,37.10
2022-11-20T04:09:03.807Z,36.70
2022-11-20T04:11:32.295Z,37.40
2022-11-20T04:14:04.544Z,37.20
2022-11-20T04:16:36.710Z,37.20
2022-11-20T04:19:05.853Z,36.80
2022-11-20T04:21:32.754Z,37.00
2022-11-20T04:23:59.737Z,36.10
2022-11-20T04:26:30.977Z,36.00
2022-11-20T04:28:59.171Z,36.30
2022-11-20T04:31:29.167Z,37.40
2022-11-20T04:33:56.510Z,37.80
2022-11-20T04:36:27.798Z,37.50
2022-11-20T04:38:57.348Z,37.00
2022-11-20T04:41:26.677Z,37.30
2022-11-20T04:43:59.957Z,37.40
2022-11-20T04:46:28.291Z,37.00
2022-11-20T04:48:55.024Z,37.20
2022-11-20T04:51:21.816Z,37.60
2022-11-20T04:53:48.672Z,37.10
2022-11-20T04:56:15.463Z,36.70
2022-11-20T04:58:42.496Z,36.50
2022-11-20T05:01:14.397Z,36.30
2022-11-20T05:03:42.931Z,35.90
2022-11-20T05:06:11.417Z,36.30
2022-11-20T05:08:38.191Z,36.10
2022-11-20T05:11:07.471Z,36.70
2022-11-20T05:13:34.259Z,36.40
2022-11-20T05:16:19.458Z,36.10
2022-11-20T05:18:46.994Z,36.40
2022-11-20T05:21:14.224Z,37.00
2022-11-20T05:23:41.795Z,36.90
2022-11-20T05:26:13.540Z,36.40
2022-11-20T05:28:40.299Z,36.60
2022-11-20T05:31:12.687Z,36.50
2022-11-20T05:33:42.767Z,36.10
2022-11-20T05:36:10.272Z,36.60
2022-11-20T05:38:37.017Z,36.40
2022-11-20T05:41:09.624Z,36.00
2022-11-20T05:43:38.267Z,35.10
2022-11-20T05:46:06.785Z,35.60
2022-11-20T05:48:34.438Z,35.60
2022-11-20T05:51:02.815Z,36.00
2022-11-20T05:53:29.898Z,36.10
2022-11-20T05:56:05.181Z,36.30
2022-11-20T05:58:33.053Z,35.50
2022-11-20T06:01:12.644Z,35.70
2022-11-20T06:03:40.253Z,35.70
2022-11-20T06:06:07.715Z,36.40
2022-11-20T06:08:35.052Z,36.00
2022-11-20T06:11:06.904Z,35.70
2022-11-20T06:13:35.230Z,35.50
2022-11-20T06:16:04.295Z,36.00
2022-11-20T06:18:31.623Z,35.80
2022-11-20T06:21:13.606Z,35.90
2022-11-20T06:23:41.258Z,35.90
2022-11-20T06:26:10.163Z,36.60
2022-11-20T06:28:36.921Z,36.80
2022-11-20T06:31:06.873Z,39.80
2022-11-20T06:33:34.417Z,36.90
2022-11-20T06:36:10.356Z,37.10
2022-11-20T06:38:38.088Z,35.70
2022-11-20T06:41:08.144Z,36.10
2022-11-20T06:43:34.974Z,35.50
2022-11-20T06:46:01.750Z,36.00
2022-11-20T06:48:29.743Z,36.30
2022-11-20T06:50:57.365Z,36.20
2022-11-20T06:53:25.047Z,36.00
2022-11-20T06:55:52.743Z,36.20
2022-11-20T06:58:19.547Z,36.40
2022-11-20T07:00:46.424Z,35.50
2022-11-20T07:03:13.958Z,34.80
2022-11-20T07:05:41.288Z,34.60
2022-11-20T07:08:08.386Z,34.50
2022-11-20T07:10:35.135Z,34.70
2022-11-20T07:13:02.006Z,34.80
2022-11-20T07:15:28.748Z,35.20
2022-11-20T07:17:55.431Z,35.40
2022-11-20T07:20:22.255Z,35.80
2022-11-20T07:22:55.358Z,36.10
2022-11-20T07:25:22.243Z,36.20
2022-11-20T07:27:48.987Z,36.50
2022-11-20T07:30:16.913Z,36.90
2022-11-20T07:32:43.610Z,37.30
2022-11-20T07:35:10.288Z,37.70
2022-11-20T07:37:36.966Z,38.00
2022-11-20T07:40:04.604Z,38.50
2022-11-20T07:42:31.338Z,38.60
2022-11-20T07:44:58.024Z,39.00
2022-11-20T07:47:24.701Z,39.30
2022-11-20T07:49:51.490Z,39.70
2022-11-20T07:52:18.282Z,40.10
2022-11-20T07:54:44.954Z,40.60
2022-11-20T07:57:11.696Z,41.00
2022-11-20T07:59:39.790Z,41.40
2022-11-20T08:02:06.685Z,42.00
2022-11-20T08:04:34.198Z,42.50
2022-11-20T08:07:00.961Z,42.80
2022-11-20T08:09:27.761Z,43.10
2022-11-20T08:12:13.226Z,43.50
2022-11-20T08:14:39.949Z,43.70
2022-11-20T08:17:06.771Z,43.90
2022-11-20T08:19:33.832Z,44.50
2022-11-20T08:22:00.555Z,44.90
2022-11-20T08:24:27.435Z,45.20
2022-11-20T08:26:54.218Z,45.60
2022-11-20T08:29:21.222Z,46.10
2022-11-20T08:31:48.315Z,46.50
2022-11-20T08:34:18.962Z,46.80
2022-11-20T08:36:46.114Z,46.90
2022-11-20T08:39:13.525Z,47.00
2022-11-20T08:41:40.278Z,47.50
2022-11-20T08:44:08.757Z,47.20
2022-11-20T08:46:38.895Z,47.30
2022-11-20T08:49:07.197Z,47.50
2022-11-20T08:51:34.754Z,47.80
2022-11-20T08:54:01.691Z,47.90
2022-11-20T08:56:29.332Z,48.30
2022-11-20T08:59:20.168Z,48.60
2022-11-20T09:01:42.948Z,48.90
2022-11-20T09:04:09.633Z,49.30
2022-11-20T09:06:36.352Z,49.90
2022-11-20T09:09:06.605Z,50.40
2022-11-20T09:11:35.388Z,50.80
2022-11-20T09:14:03.736Z,51.00
2022-11-20T09:16:30.884Z,51.40
2022-11-20T09:19:20.599Z,51.40
2022-11-20T09:21:44.368Z,51.20
2022-11-20T09:24:11.099Z,51.10
2022-11-20T09:26:37.791Z,51.30
2022-11-20T09:29:04.604Z,51.30
2022-11-20T09:31:31.351Z,51.50
2022-11-20T09:33:58.034Z,51.60
2022-11-20T09:36:24.889Z,51.90
2022-11-20T09:38:51.567Z,51.90
2022-11-20T09:41:37.004Z,51.80
2022-11-20T09:44:25.902Z,52.10
2022-11-20T09:47:03.835Z,52.10
2022-11-20T09:49:51.568Z,52.00
2022-11-20T09:52:28.100Z,52.40
2022-11-20T09:54:56.199Z,52.30
2022-11-20T09:57:39.313Z,52.40
2022-11-20T10:00:12.777Z,52.70
2022-11-20T10:02:56.118Z,52.70
2022-11-20T10:05:28.929Z,52.90
2022-11-20T10:08:25.364Z,52.90
2022-11-20T10:10:54.999Z,53.10
2022-11-20T10:13:45.942Z,52.80
2022-11-20T10:16:54.842Z,53.50
2022-11-20T10:19:40.525Z,53.20
2022-11-20T10:22:22.667Z,52.60
2022-11-20T10:25:18.900Z,52.50
2022-11-20T10:28:10.643Z,52.80
2022-11-20T10:30:40.975Z,52.80
2022-11-20T10:33:23.522Z,52.80
2022-11-20T10:36:13.387Z,53.20
2022-11-20T10:39:00.739Z,53.50
2022-11-20T10:41:37.094Z,53.50
2022-11-20T10:44:45.277Z,53.80
2022-11-20T10:47:17.415Z,54.00
2022-11-20T10:49:51.391Z,54.30
2022-11-20T10:52:36.566Z,54.30
2022-11-20T10:55:17.060Z,54.60
2022-11-20T10:58:15.613Z,54.60
2022-11-20T11:00:43.091Z,55.00
2022-11-20T11:03:28.425Z,54.70
2022-11-20T11:06:06.247Z,55.20
2022-11-20T11:08:37.351Z,55.40
2022-11-20T11:11:27.134Z,60.50
2022-11-20T11:13:53.880Z,55.40
2022-11-20T11:16:26.397Z,55.30
2022-11-20T11:19:04.127Z,57.50
2022-11-20T11:21:31.086Z,55.40
2022-11-20T11:24:27.043Z,55.40
2022-11-20T11:27:10.124Z,55.50
2022-11-20T11:29:39.817Z,55.60
2022-11-20T11:32:16.886Z,55.30
2022-11-20T11:34:43.866Z,55.60
2022-11-20T11:37:25.184Z,55.50
2022-11-20T11:40:22.383Z,55.70
2022-11-20T11:42:49.260Z,55.70
2022-11-20T11:45:18.462Z,55.80
2022-11-20T11:47:46.962Z,57.60
2022-11-20T11:50:13.629Z,56.00
2022-11-20T11:53:06.640Z,56.00
2022-11-20T11:55:45.108Z,56.40
2022-11-20T11:58:34.902Z,56.40
2022-11-20T12:01:25.728Z,56.40
2022-11-20T12:04:30.469Z,56.90
2022-11-20T12:07:30.979Z,57.20
2022-11-20T12:09:57.596Z,57.20
2022-11-20T12:12:31.039Z,57.30
2022-11-20T12:14:59.421Z,57.60
2022-11-20T12:17:26.151Z,57.70
2022-11-20T12:19:52.970Z,57.80
2022-11-20T12:22:42.794Z,58.00
2022-11-20T12:25:18.775Z,58.40
2022-11-20T12:28:05.408Z,58.30
2022-11-20T12:30:36.437Z,58.60
2022-11-20T12:33:18.781Z,58.50
2022-11-20T12:36:10.170Z,59.20
2022-11-20T12:38:55.266Z,59.20
2022-11-20T12:42:18.477Z,58.80
2022-11-20T12:45:12.217Z,59.20
2022-11-20T12:48:19.665Z,59.00
2022-11-20T12:51:24.072Z,60.00
2022-11-20T12:54:06.948Z,59.70
2022-11-20T12:57:03.561Z,59.50
2022-11-20T12:59:33.499Z,59.60
2022-11-20T13:02:29.148Z,59.50
2022-11-20T13:05:12.790Z,59.80
2022-11-20T13:07:39.785Z,59.10
2022-11-20T13:10:14.968Z,59.10
2022-11-20T13:12:49.830Z,58.70
2022-11-20T13:15:30.859Z,58.10
2022-11-20T13:18:02.562Z,57.60
2022-11-20T13:20:33.438Z,71.50
2022-11-20T13:23:00.136Z,60.50
2022-11-20T13:25:45.011Z,57.80
2022-11-20T13:28:12.695Z,57.30
2022-11-20T13:30:51.984Z,57.00
2022-11-20T13:33:24.534Z,58.10
2022-11-20T13:36:03.515Z,57.50
2022-11-20T13:38:45.085Z,56.80
2022-11-20T13:41:29.881Z,56.40
2022-11-20T13:44:23.130Z,56.40
2022-11-20T13:46:50.073Z,57.20
2022-11-20T13:49:24.361Z,56.70
2022-11-20T13:51:57.943Z,55.80
2022-11-20T13:54:33.769Z,55.70
2022-11-20T13:57:32.683Z,56.10
2022-11-20T14:00:11.352Z,55.70
2022-11-20T14:02:38.303Z,55.30
2022-11-20T14:05:05.922Z,56.30
2022-11-20T14:07:43.596Z,55.40
2022-11-20T14:10:32.366Z,55.70
2022-11-20T14:12:59.891Z,55.90
2022-11-20T14:15:33.825Z,55.80
2022-11-20T14:18:11.967Z,69.10
2022-11-20T14:20:39.798Z,55.90
2022-11-20T14:23:11.273Z,56.60
2022-11-20T14:25:42.915Z,65.70
2022-11-20T14:28:26.983Z,55.50
2022-11-20T14:30:54.824Z,54.80
2022-11-20T14:33:25.815Z,54.10
2022-11-20T14:35:57.375Z,54.00
2022-11-20T14:38:29.843Z,54.30
2022-11-20T14:41:08.530Z,54.80
2022-11-20T14:43:36.980Z,54.70
2022-11-20T14:46:06.794Z,57.90
2022-11-20T14:48:44.549Z,55.90
2022-11-20T14:51:13.143Z,54.50
2022-11-20T14:53:39.850Z,54.20
2022-11-20T14:56:08.253Z,54.60
2022-11-20T14:58:35.324Z,54.70
2022-11-20T15:01:05.526Z,54.80
2022-11-20T15:03:37.477Z,54.90
2022-11-20T15:06:05.987Z,54.60
2022-11-20T15:08:32.902Z,54.50
2022-11-20T15:11:00.115Z,54.90
2022-11-20T15:13:33.434Z,54.60
2022-11-20T15:16:02.307Z,54.40
2022-11-20T15:18:31.402Z,54.80
2022-11-20T15:21:01.656Z,55.60
2022-11-20T15:23:29.686Z,55.20
2022-11-20T15:25:56.866Z,55.40
2022-11-20T15:28:34.264Z,55.80
2022-11-20T15:31:01.573Z,54.90
2022-11-20T15:33:28.680Z,55.60
2022-11-20T15:35:56.435Z,55.10
2022-11-20T15:38:23.289Z,55.40
2022-11-20T15:40:50.342Z,57.80
2022-11-20T15:43:17.046Z,55.50
2022-11-20T15:45:54.139Z,54.90
2022-11-20T15:48:33.125Z,54.40
2022-11-20T15:51:11.519Z,55.00
2022-11-20T15:53:42.533Z,54.40
2022-11-20T15:56:13.799Z,55.00
2022-11-20T15:58:41.749Z,55.00
2022-11-20T16:01:16.947Z,55.40
2022-11-20T16:03:43.981Z,54.90
2022-11-20T16:06:10.762Z,54.70
2022-11-20T16:08:37.530Z,54.60
2022-11-20T16:11:04.813Z,54.40
2022-11-20T16:13:51.792Z,54.10
2022-11-20T16:16:29.680Z,54.10
2022-11-20T16:18:56.951Z,54.00
2022-11-20T16:21:31.382Z,54.90
2022-11-20T16:24:06.824Z,54.20
2022-11-20T16:26:35.627Z,53.30
2022-11-20T16:29:03.567Z,53.50
2022-11-20T16:31:30.379Z,57.80
2022-11-20T16:33:59.251Z,54.80
2022-11-20T16:36:30.965Z,54.50
2022-11-20T16:39:02.598Z,53.70
2022-11-20T16:41:32.523Z,53.20
2022-11-20T16:44:01.313Z,53.50
2022-11-20T16:46:29.514Z,54.00
2022-11-20T16:49:00.857Z,56.10
2022-11-20T16:51:29.639Z,53.60
2022-11-20T16:53:56.418Z,53.10
2022-11-20T16:56:28.952Z,53.90
2022-11-20T16:58:57.959Z,53.30
2022-11-20T17:01:26.196Z,52.70
2022-11-20T17:04:04.427Z,53.00
2022-11-20T17:06:36.413Z,53.70
2022-11-20T17:09:04.360Z,54.40
2022-11-20T17:14:00.859Z,55.60
2022-11-20T17:16:27.913Z,56.60
2022-11-20T17:19:01.256Z,57.20
2022-11-20T17:21:32.529Z,57.20
2022-11-20T17:24:04.649Z,57.20
2022-11-20T17:26:32.814Z,56.90
2022-11-20T17:29:05.809Z,56.50
2022-11-20T17:31:34.257Z,56.30
2022-11-20T17:34:01.682Z,56.00
2022-11-20T17:36:30.125Z,56.10
2022-11-20T17:39:00.338Z,55.60
2022-11-20T17:41:29.024Z,55.00
2022-11-20T17:44:00.159Z,54.70
2022-11-20T17:46:33.460Z,54.30
2022-11-20T17:49:02.454Z,54.30
2022-11-20T17:51:31.582Z,54.60
2022-11-20T17:54:04.676Z,55.00
2022-11-20T17:56:54.057Z,55.00
2022-11-20T17:59:21.040Z,54.80
2022-11-20T18:01:47.908Z,54.90
2022-11-20T18:04:15.014Z,54.60
2022-11-20T18:06:42.556Z,54.80
2022-11-20T18:09:09.790Z,54.90
2022-11-20T18:11:38.975Z,54.50
2022-11-20T18:14:28.996Z,53.80
2022-11-20T18:16:57.804Z,53.80
2022-11-20T18:19:32.448Z,53.90
2022-11-20T18:22:01.709Z,54.50
2022-11-20T18:24:32.837Z,54.20
2022-11-20T18:26:59.902Z,54.20
2022-11-20T18:29:27.200Z,54.50
2022-11-20T18:31:54.578Z,54.70
2022-11-20T18:34:21.569Z,54.70
2022-11-20T18:36:49.083Z,54.30
2022-11-20T18:39:16.621Z,54.20
2022-11-20T18:42:02.331Z,54.20
2022-11-20T18:44:49.632Z,54.00
2022-11-20T18:47:37.951Z,54.10
2022-11-20T18:50:07.022Z,54.30
2022-11-20T18:52:39.036Z,54.10
2022-11-20T18:55:06.977Z,54.10
2022-11-20T18:57:34.304Z,54.20
2022-11-20T19:00:08.076Z,54.90
2022-11-20T19:02:41.148Z,54.70
2022-11-20T19:05:09.718Z,55.20
2022-11-20T19:07:36.510Z,55.60
2022-11-20T19:10:04.571Z,55.50
2022-11-20T19:12:31.563Z,55.00
2022-11-20T19:14:58.437Z,54.60
2022-11-20T19:17:25.136Z,54.80
2022-11-20T19:19:52.243Z,54.40
2022-11-20T19:22:19.031Z,54.40
2022-11-20T19:24:46.063Z,54.50
2022-11-20T19:27:12.866Z,54.30
2022-11-20T19:29:39.758Z,53.90
2022-11-20T19:32:06.583Z,53.80
2022-11-20T19:34:33.334Z,54.80
2022-11-20T19:37:01.038Z,54.20
2022-11-20T19:39:27.889Z,54.00
2022-11-20T19:41:54.653Z,53.80
2022-11-20T19:44:21.430Z,53.50
2022-11-20T19:46:48.259Z,53.60
2022-11-20T19:49:15.455Z,53.10
2022-11-20T19:51:47.521Z,53.00
2022-11-20T19:54:14.732Z,53.10
2022-11-20T19:56:41.448Z,53.10
2022-11-20T19:59:08.177Z,53.00
2022-11-20T20:01:35.369Z,53.10
2022-11-20T20:04:05.000Z,52.90
2022-11-20T20:06:34.016Z,53.00
2022-11-20T20:09:06.847Z,53.20
2022-11-20T20:11:34.802Z,53.10
2022-11-20T20:14:10.181Z,53.30
2022-11-20T20:16:36.959Z,52.90
2022-11-20T20:19:05.219Z,52.90
2022-11-20T20:21:34.034Z,53.20
2022-11-20T20:24:00.878Z,53.10
2022-11-20T20:26:30.263Z,54.20
2022-11-20T20:28:57.246Z,53.10
2022-11-20T20:31:31.081Z,53.20
2022-11-20T20:33:58.114Z,53.00
2022-11-20T20:36:25.996Z,52.80
2022-11-20T20:38:54.177Z,53.00
2022-11-20T20:41:22.017Z,53.10
2022-11-20T20:44:07.483Z,52.90
2022-11-20T20:46:34.216Z,53.00
2022-11-20T20:49:01.543Z,53.10
2022-11-20T20:51:28.271Z,53.00
2022-11-20T20:53:54.915Z,53.10
2022-11-20T20:56:21.655Z,53.00
2022-11-20T20:58:48.515Z,52.60
2022-11-20T21:01:17.322Z,52.80
2022-11-20T21:03:44.223Z,52.50
2022-11-20T21:06:12.054Z,55.80
2022-11-20T21:08:40.790Z,53.00
2022-11-20T21:11:16.535Z,52.60
2022-11-20T21:13:44.630Z,52.80
2022-11-20T21:16:12.666Z,53.00
2022-11-20T21:18:39.426Z,53.10
2022-11-20T21:21:26.411Z,52.70
2022-11-20T21:23:53.623Z,52.60
2022-11-20T21:26:21.295Z,52.60
2022-11-20T21:28:49.828Z,53.00
2022-11-20T21:31:22.088Z,53.10
2022-11-20T21:33:51.253Z,53.00
2022-11-20T21:36:26.220Z,53.30
2022-11-20T21:38:57.076Z,53.20
2022-11-20T21:41:25.508Z,53.30
2022-11-20T21:44:23.703Z,53.20
2022-11-20T21:46:42.677Z,53.40
2022-11-20T21:49:10.107Z,53.30
2022-11-20T21:51:36.933Z,53.20
2022-11-20T21:54:03.853Z,52.90
2022-11-20T21:56:30.579Z,52.90
2022-11-20T21:58:58.221Z,53.00
2022-11-20T22:01:27.509Z,52.90
2022-11-20T22:03:57.592Z,52.90
2022-11-20T22:06:27.048Z,52.60
2022-11-20T22:08:53.839Z,52.50
2022-11-20T22:11:22.239Z,52.60
2022-11-20T22:14:08.054Z,52.60
2022-11-20T22:16:36.384Z,52.60
2022-11-20T22:19:04.027Z,52.80
2022-11-20T22:21:31.346Z,52.80
2022-11-20T22:23:58.948Z,52.60
2022-11-20T22:26:33.927Z,53.10
2022-11-20T22:29:04.530Z,52.40
2022-11-20T22:31:33.872Z,52.30
2022-11-20T22:34:02.656Z,51.90
2022-11-20T22:36:30.015Z,51.70
2022-11-20T22:38:57.796Z,53.70
2022-11-20T22:41:27.258Z,52.60
2022-11-20T22:43:56.565Z,52.00
2022-11-20T22:46:24.337Z,51.90
2022-11-20T22:48:59.293Z,51.70
2022-11-20T22:51:28.551Z,51.40
2022-11-20T22:53:55.515Z,51.60
2022-11-20T22:56:22.596Z,51.60
2022-11-20T22:58:51.197Z,51.40
2022-11-20T23:01:22.361Z,51.20
2022-11-20T23:03:51.536Z,51.30
2022-11-20T23:06:19.887Z,51.20
2022-11-20T23:08:46.975Z,51.10
2022-11-20T23:11:19.765Z,51.40
2022-11-20T23:13:47.325Z,51.10
2022-11-20T23:16:16.207Z,51.10
2022-11-20T23:18:43.855Z,50.90
2022-11-20T23:21:12.917Z,51.20
2022-11-20T23:23:40.402Z,50.70
2022-11-20T23:26:09.565Z,51.10
2022-11-20T23:28:36.799Z,50.70
2022-11-20T23:31:04.395Z,50.90
2022-11-20T23:33:31.606Z,50.70
2022-11-20T23:35:58.348Z,50.50
2022-11-20T23:38:25.020Z,50.30
2022-11-20T23:40:52.530Z,50.20
2022-11-20T23:43:21.791Z,50.40
2022-11-20T23:45:53.350Z,50.00
2022-11-20T23:48:21.792Z,49.80
2022-11-20T23:50:49.079Z,50.40
2022-11-20T23:53:16.676Z,49.90
2022-11-20T23:55:54.469Z,49.80
2022-11-20T23:58:22.546Z,49.10
